Meers, Oklahoma
Current Conditions -  °F | °C
As of 9:58 PM on Saturday 20 Dec 2014 (Local Time) from KFSI Reporting Station
Overcast Overcast  
Wind Chill:   Ceiling: 2400
Heat Index:   Visibility: 10mi
Dew Point:   Wind: 6mph
Humidity: 90%   Direction: 170°S
Pressure: 30.14"   Gusts: NA
Location:  34.78°N, 98.58°W
Report Text: KFSI 210358Z AUTO 17005KT 10SM OVC024 06/04 A3014 RMK AO2 SLP210 T00560041
Loading
Personal Weather Stations






























Interactive Weather Map New forecast layout! Learn more

10-Day Weather Forecast

Advertisements
Track Severe Weather on mobile